sensor_id;sensor_type;location;lat;lon;timestamp;P1;durP1;ratioP1;P2;durP2;ratioP2
22770;SDS011;11552;50.786;4.332;2022-08-03T00:01:35;3.58;;;1.30;;
22770;SDS011;11552;50.786;4.332;2022-08-03T00:04:02;5.05;;;1.10;;
22770;SDS011;11552;50.786;4.332;2022-08-03T00:06:29;3.33;;;1.58;;
22770;SDS011;11552;50.786;4.332;2022-08-03T00:08:55;4.90;;;1.60;;
22770;SDS011;11552;50.786;4.332;2022-08-03T00:11:21;3.55;;;1.45;;
22770;SDS011;11552;50.786;4.332;2022-08-03T00:13:46;5.68;;;1.55;;
22770;SDS011;11552;50.786;4.332;2022-08-03T00:16:12;3.60;;;1.42;;
22770;SDS011;11552;50.786;4.332;2022-08-03T00:18:38;3.58;;;1.33;;
22770;SDS011;11552;50.786;4.332;2022-08-03T00:21:04;3.85;;;1.33;;
22770;SDS011;11552;50.786;4.332;2022-08-03T00:23:30;6.00;;;1.30;;
22770;SDS011;11552;50.786;4.332;2022-08-03T00:25:56;3.22;;;1.10;;
22770;SDS011;11552;50.786;4.332;2022-08-03T00:28:22;3.63;;;1.10;;
22770;SDS011;11552;50.786;4.332;2022-08-03T00:30:48;4.60;;;1.45;;
22770;SDS011;11552;50.786;4.332;2022-08-03T00:33:13;2.70;;;0.90;;
22770;SDS011;11552;50.786;4.332;2022-08-03T00:35:39;6.95;;;1.40;;
22770;SDS011;11552;50.786;4.332;2022-08-03T00:38:05;4.53;;;1.30;;
22770;SDS011;11552;50.786;4.332;2022-08-03T00:40:31;2.55;;;1.15;;
22770;SDS011;11552;50.786;4.332;2022-08-03T00:42:58;6.72;;;1.40;;
22770;SDS011;11552;50.786;4.332;2022-08-03T00:45:29;5.28;;;1.33;;
22770;SDS011;11552;50.786;4.332;2022-08-03T00:47:56;5.85;;;1.30;;
22770;SDS011;11552;50.786;4.332;2022-08-03T00:50:23;4.80;;;1.23;;
22770;SDS011;11552;50.786;4.332;2022-08-03T00:52:53;5.80;;;1.30;;
22770;SDS011;11552;50.786;4.332;2022-08-03T00:55:22;5.13;;;1.20;;
22770;SDS011;11552;50.786;4.332;2022-08-03T00:57:48;7.60;;;1.73;;
22770;SDS011;11552;50.786;4.332;2022-08-03T01:00:16;5.63;;;1.30;;
22770;SDS011;11552;50.786;4.332;2022-08-03T01:02:43;5.70;;;1.42;;
22770;SDS011;11552;50.786;4.332;2022-08-03T01:05:10;6.13;;;1.77;;
22770;SDS011;11552;50.786;4.332;2022-08-03T01:20:13;6.72;;;1.67;;
22770;SDS011;11552;50.786;4.332;2022-08-03T01:31:04;5.22;;;1.50;;
22770;SDS011;11552;50.786;4.332;2022-08-03T01:33:35;6.50;;;1.70;;
22770;SDS011;11552;50.786;4.332;2022-08-03T01:36:04;4.75;;;1.15;;
22770;SDS011;11552;50.786;4.332;2022-08-03T01:38:40;5.95;;;1.58;;
22770;SDS011;11552;50.786;4.332;2022-08-03T01:41:11;5.20;;;1.60;;
22770;SDS011;11552;50.786;4.332;2022-08-03T01:43:41;6.18;;;1.40;;
22770;SDS011;11552;50.786;4.332;2022-08-03T01:46:12;3.72;;;1.42;;
22770;SDS011;11552;50.786;4.332;2022-08-03T01:48:39;6.97;;;1.63;;
22770;SDS011;11552;50.786;4.332;2022-08-03T01:51:07;4.32;;;1.40;;
22770;SDS011;11552;50.786;4.332;2022-08-03T01:53:34;7.20;;;1.50;;
22770;SDS011;11552;50.786;4.332;2022-08-03T01:56:00;7.88;;;1.75;;
22770;SDS011;11552;50.786;4.332;2022-08-03T01:58:28;6.53;;;1.50;;
22770;SDS011;11552;50.786;4.332;2022-08-03T02:00:55;4.00;;;1.52;;
22770;SDS011;11552;50.786;4.332;2022-08-03T02:03:25;7.07;;;1.48;;
22770;SDS011;11552;50.786;4.332;2022-08-03T02:05:52;5.90;;;1.30;;
22770;SDS011;11552;50.786;4.332;2022-08-03T02:08:20;7.75;;;1.50;;
22770;SDS011;11552;50.786;4.332;2022-08-03T02:10:50;4.78;;;1.70;;
22770;SDS011;11552;50.786;4.332;2022-08-03T02:13:18;6.32;;;2.05;;
22770;SDS011;11552;50.786;4.332;2022-08-03T02:15:45;6.15;;;1.40;;
22770;SDS011;11552;50.786;4.332;2022-08-03T02:18:12;8.73;;;1.73;;
22770;SDS011;11552;50.786;4.332;2022-08-03T02:20:39;7.63;;;1.70;;
22770;SDS011;11552;50.786;4.332;2022-08-03T02:23:07;4.85;;;1.63;;
22770;SDS011;11552;50.786;4.332;2022-08-03T02:25:39;5.72;;;1.85;;
22770;SDS011;11552;50.786;4.332;2022-08-03T02:28:15;3.33;;;1.70;;
22770;SDS011;11552;50.786;4.332;2022-08-03T02:30:45;6.30;;;1.70;;
22770;SDS011;11552;50.786;4.332;2022-08-03T02:33:19;5.85;;;1.67;;
22770;SDS011;11552;50.786;4.332;2022-08-03T02:35:50;6.13;;;1.50;;
22770;SDS011;11552;50.786;4.332;2022-08-03T02:38:18;4.88;;;1.48;;
22770;SDS011;11552;50.786;4.332;2022-08-03T02:40:47;5.32;;;1.55;;
22770;SDS011;11552;50.786;4.332;2022-08-03T02:43:16;6.22;;;1.50;;
22770;SDS011;11552;50.786;4.332;2022-08-03T02:45:45;6.20;;;1.63;;
22770;SDS011;11552;50.786;4.332;2022-08-03T02:48:17;6.70;;;1.60;;
22770;SDS011;11552;50.786;4.332;2022-08-03T02:50:47;6.30;;;1.75;;
22770;SDS011;11552;50.786;4.332;2022-08-03T02:53:15;6.88;;;1.60;;
22770;SDS011;11552;50.786;4.332;2022-08-03T02:55:42;4.20;;;1.35;;
22770;SDS011;11552;50.786;4.332;2022-08-03T02:58:08;8.73;;;1.58;;
22770;SDS011;11552;50.786;4.332;2022-08-03T03:00:36;4.10;;;1.65;;
22770;SDS011;11552;50.786;4.332;2022-08-03T03:03:03;5.10;;;1.40;;
22770;SDS011;11552;50.786;4.332;2022-08-03T03:05:30;4.93;;;1.42;;
22770;SDS011;11552;50.786;4.332;2022-08-03T03:07:57;2.85;;;1.42;;
22770;SDS011;11552;50.786;4.332;2022-08-03T03:10:23;3.30;;;1.52;;
22770;SDS011;11552;50.786;4.332;2022-08-03T03:12:50;7.65;;;2.20;;
22770;SDS011;11552;50.786;4.332;2022-08-03T03:15:19;9.05;;;2.05;;
22770;SDS011;11552;50.786;4.332;2022-08-03T03:17:46;5.05;;;1.58;;
22770;SDS011;11552;50.786;4.332;2022-08-03T03:20:14;4.65;;;1.40;;
22770;SDS011;11552;50.786;4.332;2022-08-03T03:22:41;6.68;;;2.08;;
22770;SDS011;11552;50.786;4.332;2022-08-03T03:25:08;7.03;;;1.48;;
22770;SDS011;11552;50.786;4.332;2022-08-03T03:27:34;6.35;;;1.60;;
22770;SDS011;11552;50.786;4.332;2022-08-03T03:30:01;5.28;;;1.80;;
22770;SDS011;11552;50.786;4.332;2022-08-03T03:32:28;5.60;;;1.63;;
22770;SDS011;11552;50.786;4.332;2022-08-03T03:34:54;3.80;;;1.52;;
22770;SDS011;11552;50.786;4.332;2022-08-03T03:37:23;5.88;;;1.85;;
22770;SDS011;11552;50.786;4.332;2022-08-03T03:39:49;6.10;;;1.77;;
22770;SDS011;11552;50.786;4.332;2022-08-03T03:42:14;7.70;;;1.65;;
22770;SDS011;11552;50.786;4.332;2022-08-03T03:44:40;7.70;;;1.77;;
22770;SDS011;11552;50.786;4.332;2022-08-03T03:47:06;4.70;;;1.60;;
22770;SDS011;11552;50.786;4.332;2022-08-03T03:49:31;5.00;;;1.40;;
22770;SDS011;11552;50.786;4.332;2022-08-03T03:51:57;10.15;;;2.22;;
22770;SDS011;11552;50.786;4.332;2022-08-03T03:54:23;4.40;;;1.63;;
22770;SDS011;11552;50.786;4.332;2022-08-03T03:56:49;5.78;;;1.80;;
22770;SDS011;11552;50.786;4.332;2022-08-03T03:59:15;10.68;;;2.80;;
22770;SDS011;11552;50.786;4.332;2022-08-03T04:01:40;5.63;;;1.80;;
22770;SDS011;11552;50.786;4.332;2022-08-03T04:04:06;6.65;;;1.67;;
22770;SDS011;11552;50.786;4.332;2022-08-03T04:06:55;4.90;;;1.95;;
22770;SDS011;11552;50.786;4.332;2022-08-03T04:09:39;5.80;;;2.15;;
22770;SDS011;11552;50.786;4.332;2022-08-03T04:12:25;6.68;;;1.92;;
22770;SDS011;11552;50.786;4.332;2022-08-03T04:14:53;4.50;;;1.60;;
22770;SDS011;11552;50.786;4.332;2022-08-03T04:17:21;5.10;;;2.08;;
22770;SDS011;11552;50.786;4.332;2022-08-03T04:19:51;6.03;;;1.98;;
22770;SDS011;11552;50.786;4.332;2022-08-03T04:22:24;7.15;;;2.22;;
22770;SDS011;11552;50.786;4.332;2022-08-03T04:25:02;6.28;;;2.60;;
22770;SDS011;11552;50.786;4.332;2022-08-03T04:27:37;9.05;;;2.10;;
22770;SDS011;11552;50.786;4.332;2022-08-03T04:30:05;6.00;;;2.15;;
22770;SDS011;11552;50.786;4.332;2022-08-03T04:32:33;6.03;;;2.15;;
22770;SDS011;11552;50.786;4.332;2022-08-03T04:35:01;6.57;;;2.08;;
22770;SDS011;11552;50.786;4.332;2022-08-03T04:37:32;5.82;;;2.20;;
22770;SDS011;11552;50.786;4.332;2022-08-03T04:40:04;6.10;;;2.10;;
22770;SDS011;11552;50.786;4.332;2022-08-03T04:42:32;9.77;;;1.90;;
22770;SDS011;11552;50.786;4.332;2022-08-03T04:45:00;6.25;;;1.50;;
22770;SDS011;11552;50.786;4.332;2022-08-03T04:47:29;8.65;;;2.38;;
22770;SDS011;11552;50.786;4.332;2022-08-03T04:49:57;5.25;;;2.00;;
22770;SDS011;11552;50.786;4.332;2022-08-03T04:52:25;6.00;;;2.10;;
22770;SDS011;11552;50.786;4.332;2022-08-03T04:54:51;7.55;;;2.10;;
22770;SDS011;11552;50.786;4.332;2022-08-03T04:57:17;6.30;;;1.70;;
22770;SDS011;11552;50.786;4.332;2022-08-03T04:59:43;10.82;;;2.20;;
22770;SDS011;11552;50.786;4.332;2022-08-03T05:02:08;8.32;;;2.00;;
22770;SDS011;11552;50.786;4.332;2022-08-03T05:04:34;6.57;;;2.47;;
22770;SDS011;11552;50.786;4.332;2022-08-03T05:07:02;6.07;;;2.03;;
22770;SDS011;11552;50.786;4.332;2022-08-03T05:09:27;3.95;;;2.08;;
22770;SDS011;11552;50.786;4.332;2022-08-03T05:11:53;7.43;;;2.58;;
22770;SDS011;11552;50.786;4.332;2022-08-03T05:14:19;7.38;;;2.20;;
22770;SDS011;11552;50.786;4.332;2022-08-03T05:16:45;8.70;;;2.13;;
22770;SDS011;11552;50.786;4.332;2022-08-03T05:19:10;6.10;;;2.00;;
22770;SDS011;11552;50.786;4.332;2022-08-03T05:21:36;8.13;;;2.20;;
22770;SDS011;11552;50.786;4.332;2022-08-03T05:24:02;6.05;;;2.05;;
22770;SDS011;11552;50.786;4.332;2022-08-03T05:26:28;17.60;;;3.13;;
22770;SDS011;11552;50.786;4.332;2022-08-03T05:28:54;21.55;;;3.65;;
22770;SDS011;11552;50.786;4.332;2022-08-03T05:31:19;13.50;;;3.40;;
22770;SDS011;11552;50.786;4.332;2022-08-03T05:33:45;17.13;;;2.97;;
22770;SDS011;11552;50.786;4.332;2022-08-03T05:36:12;13.65;;;3.30;;
22770;SDS011;11552;50.786;4.332;2022-08-03T05:38:38;15.90;;;3.35;;
22770;SDS011;11552;50.786;4.332;2022-08-03T05:41:03;9.52;;;2.75;;
22770;SDS011;11552;50.786;4.332;2022-08-03T05:43:29;6.43;;;2.45;;
22770;SDS011;11552;50.786;4.332;2022-08-03T05:45:56;17.25;;;2.97;;
22770;SDS011;11552;50.786;4.332;2022-08-03T05:48:23;8.43;;;2.28;;
22770;SDS011;11552;50.786;4.332;2022-08-03T05:50:48;6.28;;;2.30;;
22770;SDS011;11552;50.786;4.332;2022-08-03T05:53:14;7.57;;;2.20;;
22770;SDS011;11552;50.786;4.332;2022-08-03T05:55:40;10.10;;;1.80;;
22770;SDS011;11552;50.786;4.332;2022-08-03T05:58:05;8.65;;;1.98;;
22770;SDS011;11552;50.786;4.332;2022-08-03T06:00:31;14.50;;;2.13;;
22770;SDS011;11552;50.786;4.332;2022-08-03T06:02:57;7.35;;;2.55;;
22770;SDS011;11552;50.786;4.332;2022-08-03T06:05:22;6.22;;;2.20;;
22770;SDS011;11552;50.786;4.332;2022-08-03T06:07:51;11.90;;;2.13;;
22770;SDS011;11552;50.786;4.332;2022-08-03T06:10:17;4.65;;;2.20;;
22770;SDS011;11552;50.786;4.332;2022-08-03T06:12:43;8.95;;;1.70;;
22770;SDS011;11552;50.786;4.332;2022-08-03T06:15:11;5.13;;;2.00;;
22770;SDS011;11552;50.786;4.332;2022-08-03T06:17:46;7.75;;;1.95;;
22770;SDS011;11552;50.786;4.332;2022-08-03T06:20:15;6.28;;;1.88;;
22770;SDS011;11552;50.786;4.332;2022-08-03T06:22:41;8.77;;;2.03;;
22770;SDS011;11552;50.786;4.332;2022-08-03T06:25:07;7.32;;;1.77;;
22770;SDS011;11552;50.786;4.332;2022-08-03T06:27:33;7.20;;;2.38;;
22770;SDS011;11552;50.786;4.332;2022-08-03T06:29:59;8.20;;;1.90;;
22770;SDS011;11552;50.786;4.332;2022-08-03T06:32:24;10.13;;;2.25;;
22770;SDS011;11552;50.786;4.332;2022-08-03T06:34:50;10.20;;;2.22;;
22770;SDS011;11552;50.786;4.332;2022-08-03T06:37:16;7.88;;;2.47;;
22770;SDS011;11552;50.786;4.332;2022-08-03T06:39:42;6.32;;;1.98;;
22770;SDS011;11552;50.786;4.332;2022-08-03T06:42:08;7.00;;;2.42;;
22770;SDS011;11552;50.786;4.332;2022-08-03T06:44:34;7.13;;;1.92;;
22770;SDS011;11552;50.786;4.332;2022-08-03T06:47:01;7.18;;;2.25;;
22770;SDS011;11552;50.786;4.332;2022-08-03T06:49:27;17.95;;;4.63;;
22770;SDS011;11552;50.786;4.332;2022-08-03T06:51:52;5.68;;;1.70;;
22770;SDS011;11552;50.786;4.332;2022-08-03T06:54:18;11.00;;;2.10;;
22770;SDS011;11552;50.786;4.332;2022-08-03T06:56:46;9.40;;;2.00;;
22770;SDS011;11552;50.786;4.332;2022-08-03T06:59:12;8.90;;;2.00;;
22770;SDS011;11552;50.786;4.332;2022-08-03T07:01:37;9.73;;;2.17;;
22770;SDS011;11552;50.786;4.332;2022-08-03T07:04:03;11.30;;;2.40;;
22770;SDS011;11552;50.786;4.332;2022-08-03T07:06:29;14.30;;;2.65;;
22770;SDS011;11552;50.786;4.332;2022-08-03T07:08:55;9.52;;;2.08;;
22770;SDS011;11552;50.786;4.332;2022-08-03T07:11:21;13.18;;;3.03;;
22770;SDS011;11552;50.786;4.332;2022-08-03T07:13:47;17.50;;;3.22;;
22770;SDS011;11552;50.786;4.332;2022-08-03T07:16:13;14.75;;;2.33;;
22770;SDS011;11552;50.786;4.332;2022-08-03T07:18:38;12.38;;;2.72;;
22770;SDS011;11552;50.786;4.332;2022-08-03T07:21:04;16.35;;;3.13;;
22770;SDS011;11552;50.786;4.332;2022-08-03T07:23:31;14.00;;;3.55;;
22770;SDS011;11552;50.786;4.332;2022-08-03T07:25:57;14.82;;;2.67;;
22770;SDS011;11552;50.786;4.332;2022-08-03T07:28:23;34.25;;;6.50;;
22770;SDS011;11552;50.786;4.332;2022-08-03T07:30:48;15.45;;;3.30;;
22770;SDS011;11552;50.786;4.332;2022-08-03T07:33:14;11.80;;;2.40;;
22770;SDS011;11552;50.786;4.332;2022-08-03T07:35:40;9.05;;;2.03;;
22770;SDS011;11552;50.786;4.332;2022-08-03T07:38:05;12.93;;;2.50;;
22770;SDS011;11552;50.786;4.332;2022-08-03T07:40:31;8.77;;;1.83;;
22770;SDS011;11552;50.786;4.332;2022-08-03T07:42:56;9.13;;;1.77;;
22770;SDS011;11552;50.786;4.332;2022-08-03T07:45:22;17.80;;;2.47;;
22770;SDS011;11552;50.786;4.332;2022-08-03T07:47:50;7.57;;;1.10;;
22770;SDS011;11552;50.786;4.332;2022-08-03T07:50:16;8.30;;;1.52;;
22770;SDS011;11552;50.786;4.332;2022-08-03T07:52:41;10.48;;;1.23;;
22770;SDS011;11552;50.786;4.332;2022-08-03T07:55:13;8.88;;;1.52;;
22770;SDS011;11552;50.786;4.332;2022-08-03T07:57:40;10.85;;;1.40;;
22770;SDS011;11552;50.786;4.332;2022-08-03T08:00:06;11.55;;;1.50;;
22770;SDS011;11552;50.786;4.332;2022-08-03T08:02:38;13.52;;;1.85;;
22770;SDS011;11552;50.786;4.332;2022-08-03T08:05:05;10.15;;;2.15;;
22770;SDS011;11552;50.786;4.332;2022-08-03T08:07:30;19.58;;;2.35;;
22770;SDS011;11552;50.786;4.332;2022-08-03T08:09:56;12.20;;;1.90;;
22770;SDS011;11552;50.786;4.332;2022-08-03T08:12:22;12.27;;;2.00;;
22770;SDS011;11552;50.786;4.332;2022-08-03T08:14:47;18.52;;;1.95;;
22770;SDS011;11552;50.786;4.332;2022-08-03T08:17:13;14.90;;;2.03;;
22770;SDS011;11552;50.786;4.332;2022-08-03T08:19:39;11.07;;;1.83;;
22770;SDS011;11552;50.786;4.332;2022-08-03T08:22:04;13.68;;;1.52;;
22770;SDS011;11552;50.786;4.332;2022-08-03T08:24:33;9.90;;;2.10;;
22770;SDS011;11552;50.786;4.332;2022-08-03T08:26:59;13.32;;;1.58;;
22770;SDS011;11552;50.786;4.332;2022-08-03T08:29:25;10.15;;;2.00;;
22770;SDS011;11552;50.786;4.332;2022-08-03T08:31:51;10.00;;;1.85;;
22770;SDS011;11552;50.786;4.332;2022-08-03T08:34:17;15.20;;;1.85;;
22770;SDS011;11552;50.786;4.332;2022-08-03T08:36:42;11.77;;;1.55;;
22770;SDS011;11552;50.786;4.332;2022-08-03T08:39:08;10.98;;;1.80;;
22770;SDS011;11552;50.786;4.332;2022-08-03T08:41:34;12.32;;;2.47;;
22770;SDS011;11552;50.786;4.332;2022-08-03T08:44:00;8.57;;;1.52;;
22770;SDS011;11552;50.786;4.332;2022-08-03T08:46:26;11.93;;;2.00;;
22770;SDS011;11552;50.786;4.332;2022-08-03T08:48:56;10.55;;;1.95;;
22770;SDS011;11552;50.786;4.332;2022-08-03T08:51:23;11.48;;;1.60;;
22770;SDS011;11552;50.786;4.332;2022-08-03T08:53:53;9.18;;;1.80;;
22770;SDS011;11552;50.786;4.332;2022-08-03T08:56:22;7.80;;;1.60;;
22770;SDS011;11552;50.786;4.332;2022-08-03T08:58:55;8.77;;;1.45;;
22770;SDS011;11552;50.786;4.332;2022-08-03T09:01:22;7.50;;;1.50;;
22770;SDS011;11552;50.786;4.332;2022-08-03T09:03:48;8.00;;;1.50;;
22770;SDS011;11552;50.786;4.332;2022-08-03T09:06:15;8.75;;;1.40;;
22770;SDS011;11552;50.786;4.332;2022-08-03T09:08:41;9.32;;;1.42;;
22770;SDS011;11552;50.786;4.332;2022-08-03T09:11:06;8.20;;;1.77;;
22770;SDS011;11552;50.786;4.332;2022-08-03T09:13:32;10.93;;;1.80;;
22770;SDS011;11552;50.786;4.332;2022-08-03T09:16:11;9.50;;;1.45;;
22770;SDS011;11552;50.786;4.332;2022-08-03T09:18:39;10.45;;;1.55;;
22770;SDS011;11552;50.786;4.332;2022-08-03T09:21:13;8.88;;;1.38;;
22770;SDS011;11552;50.786;4.332;2022-08-03T09:23:48;7.13;;;1.33;;
22770;SDS011;11552;50.786;4.332;2022-08-03T09:26:24;11.90;;;1.90;;
22770;SDS011;11552;50.786;4.332;2022-08-03T09:29:11;10.73;;;2.08;;
22770;SDS011;11552;50.786;4.332;2022-08-03T09:31:38;13.45;;;2.13;;
22770;SDS011;11552;50.786;4.332;2022-08-03T09:34:05;23.40;;;3.13;;
22770;SDS011;11552;50.786;4.332;2022-08-03T09:36:42;10.50;;;1.77;;
22770;SDS011;11552;50.786;4.332;2022-08-03T09:39:13;11.63;;;2.15;;
22770;SDS011;11552;50.786;4.332;2022-08-03T09:41:47;12.85;;;1.52;;
22770;SDS011;11552;50.786;4.332;2022-08-03T09:44:37;12.90;;;1.70;;
22770;SDS011;11552;50.786;4.332;2022-08-03T09:47:06;8.98;;;1.52;;
22770;SDS011;11552;50.786;4.332;2022-08-03T09:49:32;7.65;;;1.38;;
22770;SDS011;11552;50.786;4.332;2022-08-03T09:52:01;10.00;;;1.25;;
22770;SDS011;11552;50.786;4.332;2022-08-03T09:54:40;6.00;;;0.90;;
22770;SDS011;11552;50.786;4.332;2022-08-03T09:57:06;6.05;;;1.00;;
22770;SDS011;11552;50.786;4.332;2022-08-03T09:59:35;9.75;;;0.90;;
22770;SDS011;11552;50.786;4.332;2022-08-03T10:02:01;9.48;;;1.52;;
22770;SDS011;11552;50.786;4.332;2022-08-03T10:04:26;5.53;;;1.10;;
22770;SDS011;11552;50.786;4.332;2022-08-03T10:09:32;7.63;;;1.20;;
22770;SDS011;11552;50.786;4.332;2022-08-03T10:12:05;12.27;;;1.42;;
22770;SDS011;11552;50.786;4.332;2022-08-03T10:14:35;6.93;;;0.90;;
22770;SDS011;11552;50.786;4.332;2022-08-03T10:17:06;8.73;;;1.10;;
22770;SDS011;11552;50.786;4.332;2022-08-03T10:19:33;5.40;;;0.93;;
22770;SDS011;11552;50.786;4.332;2022-08-03T10:22:03;4.63;;;0.80;;
22770;SDS011;11552;50.786;4.332;2022-08-03T10:25:03;5.55;;;1.30;;
22770;SDS011;11552;50.786;4.332;2022-08-03T10:27:30;6.00;;;1.13;;
22770;SDS011;11552;50.786;4.332;2022-08-03T10:29:59;13.88;;;0.90;;
22770;SDS011;11552;50.786;4.332;2022-08-03T10:32:42;3.33;;;0.93;;
22770;SDS011;11552;50.786;4.332;2022-08-03T10:35:13;14.25;;;1.35;;
22770;SDS011;11552;50.786;4.332;2022-08-03T10:37:44;5.75;;;1.08;;
22770;SDS011;11552;50.786;4.332;2022-08-03T10:40:16;8.07;;;1.17;;
22770;SDS011;11552;50.786;4.332;2022-08-03T10:42:44;8.10;;;1.10;;
22770;SDS011;11552;50.786;4.332;2022-08-03T10:45:18;7.25;;;0.85;;
22770;SDS011;11552;50.786;4.332;2022-08-03T10:47:50;11.70;;;1.60;;
22770;SDS011;11552;50.786;4.332;2022-08-03T10:50:16;14.30;;;1.90;;
22770;SDS011;11552;50.786;4.332;2022-08-03T10:52:55;8.40;;;1.10;;
22770;SDS011;11552;50.786;4.332;2022-08-03T10:55:30;12.75;;;1.13;;
22770;SDS011;11552;50.786;4.332;2022-08-03T10:59:01;8.23;;;1.08;;
22770;SDS011;11552;50.786;4.332;2022-08-03T11:01:02;5.00;;;0.82;;
22770;SDS011;11552;50.786;4.332;2022-08-03T11:06:18;5.75;;;1.52;;
22770;SDS011;11552;50.786;4.332;2022-08-03T11:08:44;5.78;;;1.50;;
22770;SDS011;11552;50.786;4.332;2022-08-03T11:13:55;7.32;;;1.10;;
22770;SDS011;11552;50.786;4.332;2022-08-03T11:16:33;5.10;;;1.27;;
22770;SDS011;11552;50.786;4.332;2022-08-03T11:19:05;8.63;;;0.93;;
22770;SDS011;11552;50.786;4.332;2022-08-03T11:29:55;7.95;;;1.52;;
22770;SDS011;11552;50.786;4.332;2022-08-03T11:35:05;11.52;;;1.20;;
22770;SDS011;11552;50.786;4.332;2022-08-03T11:37:32;4.47;;;1.27;;
22770;SDS011;11552;50.786;4.332;2022-08-03T11:39:58;7.30;;;1.00;;
22770;SDS011;11552;50.786;4.332;2022-08-03T11:44:51;11.15;;;0.95;;
22770;SDS011;11552;50.786;4.332;2022-08-03T11:47:22;6.43;;;1.15;;
22770;SDS011;11552;50.786;4.332;2022-08-03T11:49:52;3.42;;;0.60;;
22770;SDS011;11552;50.786;4.332;2022-08-03T11:52:21;7.78;;;0.98;;
22770;SDS011;11552;50.786;4.332;2022-08-03T11:54:50;3.72;;;0.73;;
22770;SDS011;11552;50.786;4.332;2022-08-03T11:57:32;4.57;;;0.68;;
22770;SDS011;11552;50.786;4.332;2022-08-03T11:59:59;4.70;;;1.00;;
22770;SDS011;11552;50.786;4.332;2022-08-03T12:02:25;10.93;;;1.27;;
22770;SDS011;11552;50.786;4.332;2022-08-03T12:07:25;4.03;;;0.88;;
22770;SDS011;11552;50.786;4.332;2022-08-03T12:10:08;8.02;;;0.98;;
22770;SDS011;11552;50.786;4.332;2022-08-03T12:12:35;3.78;;;0.80;;
22770;SDS011;11552;50.786;4.332;2022-08-03T12:15:02;8.65;;;1.30;;
22770;SDS011;11552;50.786;4.332;2022-08-03T12:17:35;7.20;;;0.82;;
22770;SDS011;11552;50.786;4.332;2022-08-03T12:20:04;4.93;;;0.60;;
22770;SDS011;11552;50.786;4.332;2022-08-03T12:22:34;13.57;;;1.23;;
22770;SDS011;11552;50.786;4.332;2022-08-03T12:25:05;4.57;;;0.60;;
22770;SDS011;11552;50.786;4.332;2022-08-03T12:27:32;6.30;;;0.80;;
22770;SDS011;11552;50.786;4.332;2022-08-03T12:29:58;7.20;;;0.88;;
22770;SDS011;11552;50.786;4.332;2022-08-03T12:32:28;2.90;;;0.60;;
22770;SDS011;11552;50.786;4.332;2022-08-03T12:34:54;4.80;;;1.02;;
22770;SDS011;11552;50.786;4.332;2022-08-03T12:37:25;7.10;;;0.95;;
22770;SDS011;11552;50.786;4.332;2022-08-03T12:39:55;4.43;;;0.80;;
22770;SDS011;11552;50.786;4.332;2022-08-03T12:45:20;4.43;;;0.80;;
22770;SDS011;11552;50.786;4.332;2022-08-03T12:50:22;6.05;;;0.98;;
22770;SDS011;11552;50.786;4.332;2022-08-03T12:52:56;10.15;;;1.30;;
22770;SDS011;11552;50.786;4.332;2022-08-03T12:55:22;5.20;;;0.73;;
22770;SDS011;11552;50.786;4.332;2022-08-03T12:57:49;7.50;;;1.10;;
22770;SDS011;11552;50.786;4.332;2022-08-03T13:00:18;8.95;;;0.75;;
22770;SDS011;11552;50.786;4.332;2022-08-03T13:02:44;4.90;;;0.80;;
22770;SDS011;11552;50.786;4.332;2022-08-03T13:05:10;5.15;;;0.90;;
22770;SDS011;11552;50.786;4.332;2022-08-03T13:07:40;15.65;;;1.00;;
22770;SDS011;11552;50.786;4.332;2022-08-03T13:10:06;7.95;;;0.98;;
22770;SDS011;11552;50.786;4.332;2022-08-03T13:12:33;3.88;;;0.88;;
22770;SDS011;11552;50.786;4.332;2022-08-03T13:15:13;7.32;;;1.10;;
22770;SDS011;11552;50.786;4.332;2022-08-03T13:17:39;2.83;;;0.70;;
22770;SDS011;11552;50.786;4.332;2022-08-03T13:20:05;7.18;;;1.15;;
22770;SDS011;11552;50.786;4.332;2022-08-03T13:22:31;8.27;;;0.80;;
22770;SDS011;11552;50.786;4.332;2022-08-03T13:24:57;6.45;;;1.00;;
22770;SDS011;11552;50.786;4.332;2022-08-03T13:27:25;5.95;;;1.08;;
22770;SDS011;11552;50.786;4.332;2022-08-03T13:29:51;7.28;;;1.02;;
22770;SDS011;11552;50.786;4.332;2022-08-03T13:32:17;8.77;;;0.93;;
22770;SDS011;11552;50.786;4.332;2022-08-03T13:34:43;3.85;;;0.63;;
22770;SDS011;11552;50.786;4.332;2022-08-03T13:37:09;8.20;;;0.60;;
22770;SDS011;11552;50.786;4.332;2022-08-03T13:39:36;8.77;;;0.98;;
22770;SDS011;11552;50.786;4.332;2022-08-03T13:42:02;4.07;;;0.90;;
22770;SDS011;11552;50.786;4.332;2022-08-03T13:44:29;8.48;;;0.82;;
22770;SDS011;11552;50.786;4.332;2022-08-03T13:46:58;5.30;;;1.00;;
22770;SDS011;11552;50.786;4.332;2022-08-03T13:49:25;4.85;;;0.95;;
22770;SDS011;11552;50.786;4.332;2022-08-03T13:51:51;5.55;;;0.77;;
22770;SDS011;11552;50.786;4.332;2022-08-03T13:54:16;5.60;;;1.30;;
22770;SDS011;11552;50.786;4.332;2022-08-03T13:56:43;6.40;;;0.90;;
22770;SDS011;11552;50.786;4.332;2022-08-03T13:59:16;5.85;;;0.93;;
22770;SDS011;11552;50.786;4.332;2022-08-03T14:01:46;6.68;;;0.90;;
22770;SDS011;11552;50.786;4.332;2022-08-03T14:04:12;7.20;;;0.90;;
22770;SDS011;11552;50.786;4.332;2022-08-03T14:06:38;4.38;;;0.70;;
22770;SDS011;11552;50.786;4.332;2022-08-03T14:09:04;10.70;;;1.08;;
22770;SDS011;11552;50.786;4.332;2022-08-03T14:11:30;3.00;;;0.70;;
22770;SDS011;11552;50.786;4.332;2022-08-03T14:13:55;2.58;;;0.60;;
22770;SDS011;11552;50.786;4.332;2022-08-03T14:16:21;6.28;;;0.90;;
22770;SDS011;11552;50.786;4.332;2022-08-03T14:18:47;4.82;;;0.55;;
22770;SDS011;11552;50.786;4.332;2022-08-03T14:21:12;6.68;;;1.00;;
22770;SDS011;11552;50.786;4.332;2022-08-03T14:23:38;4.43;;;0.70;;
22770;SDS011;11552;50.786;4.332;2022-08-03T14:26:04;4.53;;;1.15;;
22770;SDS011;11552;50.786;4.332;2022-08-03T14:28:31;3.28;;;0.70;;
22770;SDS011;11552;50.786;4.332;2022-08-03T14:30:56;6.68;;;0.85;;
22770;SDS011;11552;50.786;4.332;2022-08-03T14:33:22;3.90;;;0.82;;
22770;SDS011;11552;50.786;4.332;2022-08-03T14:35:49;4.88;;;0.73;;
22770;SDS011;11552;50.786;4.332;2022-08-03T14:38:15;5.88;;;0.77;;
22770;SDS011;11552;50.786;4.332;2022-08-03T14:40:41;6.30;;;0.60;;
22770;SDS011;11552;50.786;4.332;2022-08-03T14:43:07;3.95;;;0.65;;
22770;SDS011;11552;50.786;4.332;2022-08-03T14:45:33;6.95;;;1.25;;
22770;SDS011;11552;50.786;4.332;2022-08-03T14:47:59;6.38;;;0.82;;
22770;SDS011;11552;50.786;4.332;2022-08-03T14:50:25;4.18;;;0.80;;
22770;SDS011;11552;50.786;4.332;2022-08-03T14:52:52;4.68;;;0.98;;
22770;SDS011;11552;50.786;4.332;2022-08-03T14:55:18;3.70;;;0.77;;
22770;SDS011;11552;50.786;4.332;2022-08-03T14:57:44;2.53;;;0.65;;
22770;SDS011;11552;50.786;4.332;2022-08-03T15:00:09;5.00;;;0.70;;
22770;SDS011;11552;50.786;4.332;2022-08-03T15:02:36;6.38;;;0.80;;
22770;SDS011;11552;50.786;4.332;2022-08-03T15:05:01;5.80;;;1.05;;
22770;SDS011;11552;50.786;4.332;2022-08-03T15:07:27;9.77;;;1.10;;
22770;SDS011;11552;50.786;4.332;2022-08-03T15:09:53;4.22;;;0.80;;
22770;SDS011;11552;50.786;4.332;2022-08-03T15:12:18;5.28;;;1.13;;
22770;SDS011;11552;50.786;4.332;2022-08-03T15:14:44;4.47;;;1.08;;
22770;SDS011;11552;50.786;4.332;2022-08-03T15:17:10;4.00;;;0.77;;
22770;SDS011;11552;50.786;4.332;2022-08-03T15:19:35;5.90;;;1.10;;
22770;SDS011;11552;50.786;4.332;2022-08-03T15:22:01;2.90;;;0.90;;
22770;SDS011;11552;50.786;4.332;2022-08-03T15:24:27;4.97;;;1.00;;
22770;SDS011;11552;50.786;4.332;2022-08-03T15:26:53;2.08;;;0.68;;
22770;SDS011;11552;50.786;4.332;2022-08-03T15:29:18;3.97;;;0.80;;
22770;SDS011;11552;50.786;4.332;2022-08-03T15:31:44;5.45;;;0.98;;
22770;SDS011;11552;50.786;4.332;2022-08-03T15:34:10;3.88;;;0.88;;
22770;SDS011;11552;50.786;4.332;2022-08-03T15:36:36;6.00;;;0.88;;
22770;SDS011;11552;50.786;4.332;2022-08-03T15:39:02;5.13;;;0.73;;
22770;SDS011;11552;50.786;4.332;2022-08-03T15:41:29;3.35;;;0.80;;